Time;durP1;ratioP1;P1;durP2;ratioP2;P2;SDS_P1;SDS_P2;PMS_P1;PMS_P2;Temp;Humidity;BMP_temperature;BMP_pressure;BME280_temperature;BME280_humidity;BME280_pressure;Samples;Min_cycle;Max_cycle;Signal;HPM_P1;HPM_P2
2023/03/29 00:00:21;;;;;;;1.37;0.57;;;;;;;5.06;46.82;99211.53;6185741;23;20150;-91
2023/03/29 00:02:47;;;;;;;2.30;0.60;;;;;;;5.25;46.31;99197.06;6186057;23;20614;-90
2023/03/29 00:05:15;;;;;;;5.40;0.70;;;;;;;5.23;46.22;99196.28;6186878;23;20150;-89
2023/03/29 00:07:41;;;;;;;8.33;0.50;;;;;;;4.96;46.19;99205.72;6186065;23;20170;-88
2023/03/29 00:10:08;;;;;;;4.67;0.80;;;;;;;5.02;46.16;99210.75;6186099;23;20582;-89
2023/03/29 00:12:35;;;;;;;1.43;0.70;;;;;;;4.97;46.53;99203.09;6185305;23;20150;-91
2023/03/29 00:15:02;;;;;;;3.93;0.40;;;;;;;5.02;46.69;99205.56;6185124;23;20506;-91
2023/03/29 00:17:29;;;;;;;3.30;0.57;;;;;;;5.07;46.27;99203.66;6186167;23;20586;-92
2023/03/29 00:19:55;;;;;;;0.87;0.40;;;;;;;5.07;46.47;99214.06;6184787;23;20619;-90
2023/03/29 00:22:21;;;;;;;0.80;0.50;;;;;;;5.09;46.15;99203.59;6184835;23;20261;-90
2023/03/29 00:24:47;;;;;;;0.87;0.50;;;;;;;4.82;46.50;99202.69;6184708;23;20158;-91
2023/03/29 00:27:15;;;;;;;1.37;1.13;;;;;;;4.79;46.72;99203.63;6184686;23;20158;-90
2023/03/29 00:29:41;;;;;;;1.00;0.40;;;;;;;4.89;46.31;99209.41;6185920;23;20240;-89
2023/03/29 00:32:06;;;;;;;0.90;0.60;;;;;;;4.75;45.81;99208.91;6185894;23;20145;-87
2023/03/29 00:34:34;;;;;;;0.83;0.50;;;;;;;4.77;46.36;99213.19;6186155;23;20164;-90
2023/03/29 00:37:01;;;;;;;0.50;0.40;;;;;;;4.80;46.34;99220.03;6184509;23;20268;-88
2023/03/29 00:39:27;;;;;;;3.10;0.80;;;;;;;4.77;46.28;99220.16;6186086;23;20227;-91
2023/03/29 00:41:53;;;;;;;1.50;0.67;;;;;;;4.62;46.37;99218.81;6185723;23;20628;-91
2023/03/29 00:44:56;;;;;;;0.50;0.40;;;;;;;4.64;46.59;99208.41;6184165;23;20187;-89
2023/03/29 00:47:27;;;;;;;1.97;0.50;;;;;;;4.88;46.31;99212.88;6185769;23;20161;-91
2023/03/29 00:49:54;;;;;;;9.77;2.40;;;;;;;4.89;46.03;99215.44;6184548;23;20147;-91
2023/03/29 00:52:23;;;;;;;2.10;0.60;;;;;;;4.94;46.04;99207.50;6184610;23;20156;-90
2023/03/29 00:54:54;;;;;;;1.60;0.77;;;;;;;4.79;46.22;99211.41;6185815;23;20206;-91
2023/03/29 00:57:22;;;;;;;1.23;0.57;;;;;;;5.03;46.19;99217.66;6184824;23;20155;-90
2023/03/29 00:59:50;;;;;;;2.00;0.57;;;;;;;4.80;45.84;99209.63;6185744;23;20170;-91
2023/03/29 01:02:20;;;;;;;0.60;0.40;;;;;;;4.68;46.46;99226.44;6185622;23;20183;-91
2023/03/29 01:04:56;;;;;;;6.33;0.60;;;;;;;4.80;45.78;99223.47;6184349;23;20147;-91
2023/03/29 01:08:05;;;;;;;2.53;0.87;;;;;;;4.65;46.16;99220.47;6185655;23;20713;-90
2023/03/29 01:10:57;;;;;;;1.17;0.53;;;;;;;4.79;45.81;99234.78;6185223;23;20235;-92
2023/03/29 01:13:41;;;;;;;1.93;0.83;;;;;;;4.82;45.95;99234.66;6169967;23;20158;-90
2023/03/29 01:16:08;;;;;;;1.30;0.50;;;;;;;4.79;45.74;99218.34;6184345;23;20152;-90
2023/03/29 01:18:34;;;;;;;2.37;1.13;;;;;;;4.65;46.41;99225.66;6186069;23;20154;-89
2023/03/29 01:21:15;;;;;;;3.10;0.90;;;;;;;4.68;46.27;99229.03;6184033;23;20564;-89
2023/03/29 01:23:57;;;;;;;0.80;0.50;;;;;;;4.56;46.56;99242.31;6185586;23;20461;-90
2023/03/29 01:26:41;;;;;;;1.63;0.70;;;;;;;4.67;46.74;99252.41;6184406;23;20158;-90
2023/03/29 01:29:32;;;;;;;0.87;0.77;;;;;;;4.72;46.09;99250.53;6185638;23;20164;-89
2023/03/29 01:32:08;;;;;;;2.20;1.00;;;;;;;4.74;45.82;99244.41;6184397;23;20223;-90
2023/03/29 01:34:51;;;;;;;0.93;0.63;;;;;;;4.88;45.53;99244.03;6186274;23;20589;-92
2023/03/29 01:37:26;;;;;;;2.53;0.57;;;;;;;4.78;45.79;99246.06;6184284;23;20146;-90
2023/03/29 01:39:52;;;;;;;0.60;0.60;;;;;;;4.87;45.46;99257.94;6185821;23;20133;-92
2023/03/29 01:42:41;;;;;;;0.87;0.50;;;;;;;4.72;45.75;99263.53;6184031;23;20189;-91
2023/03/29 01:45:30;;;;;;;1.03;0.70;;;;;;;4.92;45.72;99276.84;6184701;23;20149;-91
2023/03/29 01:48:13;;;;;;;1.93;1.00;;;;;;;4.83;45.61;99267.53;6185901;23;20146;-93
2023/03/29 01:51:14;;;;;;;1.10;0.70;;;;;;;4.93;45.60;99273.31;6184451;23;20214;-92
2023/03/29 01:53:48;;;;;;;2.23;0.97;;;;;;;4.79;45.94;99280.66;6107588;23;20153;-89
2023/03/29 01:56:19;;;;;;;2.53;0.97;;;;;;;4.80;45.56;99278.00;6186514;23;20135;-92
2023/03/29 01:58:48;;;;;;;1.63;0.90;;;;;;;4.81;45.76;99284.06;6186335;23;20225;-90
2023/03/29 02:01:17;;;;;;;1.00;0.73;;;;;;;4.85;46.05;99296.06;6186160;23;20252;-92
2023/03/29 02:03:48;;;;;;;1.97;0.83;;;;;;;4.87;45.47;99295.13;6186260;23;20239;-92
2023/03/29 02:06:19;;;;;;;2.33;0.80;;;;;;;4.69;46.26;99295.63;6186313;23;20216;-92
2023/03/29 02:08:46;;;;;;;1.17;0.80;;;;;;;4.71;46.29;99293.00;6187587;23;20166;-92
2023/03/29 02:11:12;;;;;;;1.70;1.00;;;;;;;4.72;45.48;99299.88;6186414;23;20161;-89
2023/03/29 02:13:37;;;;;;;1.87;0.93;;;;;;;4.71;45.87;99291.25;6187605;23;20504;-92
2023/03/29 02:16:08;;;;;;;0.93;0.67;;;;;;;4.79;46.34;99297.09;6186902;23;20159;-91
2023/03/29 02:18:34;;;;;;;1.73;0.60;;;;;;;4.75;45.44;99297.19;6186177;23;20150;-90
2023/03/29 02:21:01;;;;;;;2.90;0.93;;;;;;;4.63;45.70;99316.56;6187255;23;20205;-92
2023/03/29 02:23:33;;;;;;;1.10;0.60;;;;;;;4.57;46.07;99315.84;6185973;23;20156;-89
2023/03/29 02:25:59;;;;;;;1.83;0.97;;;;;;;4.58;46.05;99317.56;6186068;23;20150;-92
2023/03/29 02:28:26;;;;;;;1.57;0.80;;;;;;;4.54;46.20;99315.94;6186058;23;20177;-92
2023/03/29 02:31:09;;;;;;;1.90;1.00;;;;;;;4.52;46.06;99315.13;6187172;23;20180;-90
2023/03/29 02:33:51;;;;;;;1.10;0.70;;;;;;;4.64;46.00;99320.03;6186207;23;20158;-90
2023/03/29 02:36:21;;;;;;;1.83;1.07;;;;;;;4.59;45.81;99329.63;6187466;23;20318;-91
2023/03/29 02:38:47;;;;;;;19.37;7.67;;;;;;;4.31;46.44;99345.06;6185659;23;20227;-91
2023/03/29 02:41:15;;;;;;;2.37;1.10;;;;;;;4.34;46.00;99332.88;6185595;23;20624;-92
2023/03/29 02:43:42;;;;;;;1.33;0.83;;;;;;;4.49;46.04;99343.75;6187056;23;20154;-92
2023/03/29 02:46:09;;;;;;;1.33;0.83;;;;;;;4.56;46.09;99333.16;6187238;23;20154;-90
2023/03/29 02:48:36;;;;;;;1.70;0.93;;;;;;;4.50;46.20;99342.88;6187653;23;20153;-88
2023/03/29 02:51:07;;;;;;;4.47;1.30;;;;;;;4.67;45.53;99348.47;6185641;23;20590;-91
2023/03/29 02:53:50;;;;;;;2.23;1.00;;;;;;;4.57;45.40;99341.81;6186620;23;20564;-90
2023/03/29 02:56:18;;;;;;;4.90;1.00;;;;;;;4.61;45.83;99343.47;6187027;23;20515;-90
2023/03/29 02:58:43;;;;;;;2.13;1.27;;;;;;;4.33;45.94;99354.50;6186727;23;20146;-90
2023/03/29 03:01:10;;;;;;;2.13;0.90;;;;;;;4.31;46.07;99360.63;6185957;23;20187;-87
2023/03/29 03:03:35;;;;;;;5.70;1.23;;;;;;;4.35;45.92;99364.84;6185805;23;20448;-90
2023/03/29 03:06:01;;;;;;;2.67;0.97;;;;;;;4.12;46.40;99356.75;6185810;23;20159;-90
2023/03/29 03:08:26;;;;;;;6.70;1.73;;;;;;;4.25;46.21;99361.63;6184368;23;20511;-89
2023/03/29 03:10:53;;;;;;;2.33;1.17;;;;;;;4.34;46.14;99371.78;6186681;23;20588;-91
2023/03/29 03:13:18;;;;;;;0.87;0.57;;;;;;;4.50;45.89;99374.00;6186743;23;20232;-92
2023/03/29 03:15:47;;;;;;;1.60;1.10;;;;;;;4.58;45.46;99377.28;6185562;23;20199;-90
2023/03/29 03:18:14;;;;;;;1.13;0.70;;;;;;;4.67;44.86;99377.88;6186550;23;20175;-89
2023/03/29 03:20:39;;;;;;;3.37;2.57;;;;;;;4.53;45.09;99377.41;6185201;23;20160;-90
2023/03/29 03:23:07;;;;;;;4.87;1.00;;;;;;;4.20;46.04;99381.63;6185292;23;20178;-89
2023/03/29 03:25:34;;;;;;;2.13;0.80;;;;;;;4.26;45.60;99384.09;6185244;23;20235;-89
2023/03/29 03:28:00;;;;;;;3.97;1.20;;;;;;;4.21;45.81;99393.72;6186464;23;20153;-91
2023/03/29 03:30:27;;;;;;;4.83;1.43;;;;;;;4.50;45.34;99398.22;6185497;23;20159;-92
2023/03/29 03:32:55;;;;;;;5.20;1.53;;;;;;;4.32;45.96;99398.66;6185379;23;20212;-92
2023/03/29 03:35:21;;;;;;;2.07;1.20;;;;;;;4.49;46.47;99406.03;6185485;23;20300;-92
2023/03/29 03:37:47;;;;;;;1.30;0.90;;;;;;;4.32;46.35;99404.69;6186384;23;20174;-93
2023/03/29 03:40:12;;;;;;;6.60;2.13;;;;;;;4.19;46.22;99411.03;6185188;23;20232;-91
2023/03/29 03:42:40;;;;;;;2.73;1.33;;;;;;;4.35;46.61;99415.00;6186458;23;20189;-91
2023/03/29 03:45:07;;;;;;;4.30;1.60;;;;;;;4.32;46.29;99412.47;6185280;23;20200;-90
2023/03/29 03:47:34;;;;;;;4.77;1.43;;;;;;;4.47;45.87;99413.88;6186351;23;20154;-89
2023/03/29 03:49:59;;;;;;;2.70;1.47;;;;;;;4.30;46.26;99419.44;6186391;23;20179;-92
2023/03/29 03:52:25;;;;;;;1.53;1.03;;;;;;;4.30;46.24;99422.03;6184932;23;20237;-91
2023/03/29 03:54:51;;;;;;;2.63;1.40;;;;;;;4.26;46.65;99420.41;6185364;23;20233;-90
2023/03/29 03:57:17;;;;;;;4.60;1.37;;;;;;;4.17;46.42;99436.16;6186481;23;20212;-91
2023/03/29 03:59:43;;;;;;;1.70;0.97;;;;;;;4.07;46.34;99436.41;6185062;23;20197;-92
2023/03/29 04:02:09;;;;;;;6.73;1.50;;;;;;;4.11;46.06;99435.47;6185019;23;20181;-90
2023/03/29 04:04:34;;;;;;;1.57;0.67;;;;;;;4.03;46.79;99435.63;6186590;23;20146;-91
2023/03/29 04:07:03;;;;;;;2.73;1.27;;;;;;;4.22;45.67;99443.84;6186174;23;20177;-90
2023/03/29 04:09:30;;;;;;;2.53;1.17;;;;;;;4.35;45.79;99443.53;6182863;23;20229;-90
2023/03/29 04:11:56;;;;;;;4.17;1.00;;;;;;;4.23;45.29;99450.75;6182424;23;20167;-92
2023/03/29 04:14:22;;;;;;;5.67;1.67;;;;;;;4.22;46.01;99455.09;6183038;23;20155;-89
2023/03/29 04:16:47;;;;;;;2.87;1.63;;;;;;;4.04;46.46;99450.28;6185221;23;20217;-90
2023/03/29 04:19:13;;;;;;;2.93;1.13;;;;;;;3.91;46.52;99456.63;6183435;23;20468;-89
2023/03/29 04:21:38;;;;;;;3.03;1.40;;;;;;;4.08;45.80;99458.88;6184318;23;20266;-90
2023/03/29 04:24:04;;;;;;;6.10;1.57;;;;;;;4.07;46.34;99465.78;6185321;23;20153;-92
2023/03/29 04:26:30;;;;;;;2.53;1.03;;;;;;;4.20;45.93;99464.66;6185887;23;20158;-92
2023/03/29 04:28:55;;;;;;;2.27;1.50;;;;;;;4.19;45.11;99456.91;6186109;23;20558;-91
2023/03/29 04:31:20;;;;;;;1.33;0.90;;;;;;;4.04;46.21;99463.25;6185087;23;20225;-90
2023/03/29 04:33:46;;;;;;;4.70;1.73;;;;;;;4.09;46.80;99473.53;6186279;23;20150;-91
2023/03/29 04:36:12;;;;;;;3.13;1.77;;;;;;;4.18;45.81;99473.34;6186035;23;20293;-89
2023/03/29 04:38:40;;;;;;;5.23;1.37;;;;;;;4.44;45.81;99472.78;6186842;23;20150;-91
2023/03/29 04:41:08;;;;;;;2.30;1.20;;;;;;;4.24;46.16;99468.91;6184786;23;20645;-90
2023/03/29 04:43:33;;;;;;;2.07;1.20;;;;;;;4.34;45.17;99465.22;6184743;23;20293;-90
2023/03/29 04:45:59;;;;;;;1.80;1.17;;;;;;;4.14;46.48;99476.91;6186352;23;20150;-91
2023/03/29 04:48:25;;;;;;;2.27;1.40;;;;;;;4.27;46.24;99474.00;6184486;23;20158;-90
2023/03/29 04:50:53;;;;;;;2.90;1.30;;;;;;;4.13;46.23;99462.22;6184366;23;20623;-89
2023/03/29 04:53:19;;;;;;;1.67;1.30;;;;;;;4.25;46.62;99465.41;6185785;23;20640;-92
2023/03/29 04:55:46;;;;;;;4.07;1.67;;;;;;;4.42;46.04;99470.22;6186213;23;20578;-91
2023/03/29 04:58:11;;;;;;;3.57;1.60;;;;;;;4.34;45.75;99469.53;6185741;23;20586;-91
2023/03/29 05:00:41;;;;;;;3.50;1.30;;;;;;;4.21;45.93;99475.88;6184367;23;20159;-89
2023/03/29 05:03:10;;;;;;;3.80;1.60;;;;;;;4.57;45.32;99476.78;6184518;23;20162;-90
2023/03/29 05:05:36;;;;;;;1.70;1.30;;;;;;;4.39;45.38;99479.81;6185542;23;20564;-91
2023/03/29 05:08:02;;;;;;;3.17;1.67;;;;;;;4.39;45.94;99480.66;6184112;23;20170;-91
2023/03/29 05:10:27;;;;;;;2.40;1.33;;;;;;;4.44;45.49;99480.56;6185709;23;20166;-89
2023/03/29 05:12:53;;;;;;;1.67;1.03;;;;;;;4.62;44.89;99485.31;6186030;23;20164;-90
2023/03/29 05:15:20;;;;;;;2.20;1.33;;;;;;;4.66;44.60;99486.97;6184377;23;20169;-91
2023/03/29 05:17:46;;;;;;;2.80;1.43;;;;;;;4.78;44.50;99481.50;6184768;23;20154;-92
2023/03/29 05:20:12;;;;;;;1.90;0.90;;;;;;;4.83;44.23;99477.91;6184202;23;20154;-91
2023/03/29 05:22:39;;;;;;;4.70;1.10;;;;;;;5.40;43.35;99477.31;6184330;23;20220;-91
2023/03/29 05:25:05;;;;;;;1.63;1.03;;;;;;;5.80;42.33;99482.28;6184496;23;20155;-90
2023/03/29 05:27:32;;;;;;;2.90;1.13;;;;;;;5.99;42.15;99478.31;6185353;23;20151;-90
2023/03/29 05:29:59;;;;;;;3.00;1.10;;;;;;;6.43;41.65;99471.78;6185408;23;20212;-89
2023/03/29 05:32:25;;;;;;;2.60;1.23;;;;;;;6.46;40.82;99485.56;6187287;23;20566;-90
2023/03/29 05:34:50;;;;;;;2.10;1.20;;;;;;;6.38;40.72;99471.94;6187592;23;20177;-90
2023/03/29 05:37:16;;;;;;;2.47;1.47;;;;;;;6.55;41.00;99480.06;6188503;23;20147;-88
2023/03/29 05:39:41;;;;;;;2.10;1.40;;;;;;;6.77;40.48;99468.09;6187526;23;20150;-89
2023/03/29 05:42:11;;;;;;;4.67;1.73;;;;;;;7.03;40.48;99477.66;6186091;23;20182;-90
2023/03/29 05:44:36;;;;;;;1.67;0.80;;;;;;;7.31;39.01;99470.63;6185147;23;20231;-90
2023/03/29 05:47:02;;;;;;;2.20;1.07;;;;;;;7.63;38.65;99476.47;6186745;23;20183;-91
2023/03/29 05:49:27;;;;;;;3.77;1.70;;;;;;;7.70;38.32;99486.66;6187569;23;20180;-91
2023/03/29 05:51:55;;;;;;;5.00;1.50;;;;;;;8.02;38.44;99488.94;6187153;23;20223;-90
2023/03/29 05:54:22;;;;;;;3.43;1.83;;;;;;;9.08;36.17;99490.06;6187759;23;20235;-87
2023/03/29 05:56:47;;;;;;;2.50;1.13;;;;;;;9.48;35.71;99477.94;6187255;23;20483;-90
2023/03/29 05:59:13;;;;;;;3.97;1.20;;;;;;;10.06;33.88;99478.88;6186188;23;20185;-92
2023/03/29 06:01:39;;;;;;;3.00;1.00;;;;;;;10.50;33.52;99482.94;6187488;23;20178;-90
2023/03/29 06:04:05;;;;;;;2.80;1.40;;;;;;;11.25;31.76;99467.03;6187669;23;20146;-91
2023/03/29 06:06:31;;;;;;;2.27;1.27;;;;;;;11.29;31.90;99463.34;6187156;23;20226;-91
2023/03/29 06:08:56;;;;;;;4.07;0.93;;;;;;;11.61;31.75;99489.66;6185388;23;20165;-90
2023/03/29 06:11:23;;;;;;;1.87;1.10;;;;;;;11.42;31.91;99475.78;6185945;23;20150;-89
2023/03/29 06:13:48;;;;;;;1.67;0.90;;;;;;;11.44;32.24;99481.78;6185971;23;20182;-87
2023/03/29 06:16:15;;;;;;;5.77;1.30;;;;;;;11.48;31.61;99491.19;6186273;23;20566;-88
2023/03/29 06:18:41;;;;;;;1.83;1.00;;;;;;;11.31;31.87;99498.22;6187565;23;20155;-92
2023/03/29 06:21:08;;;;;;;2.93;1.50;;;;;;;11.45;31.72;99487.91;6185915;23;20196;-90
2023/03/29 06:23:33;;;;;;;3.00;1.30;;;;;;;12.48;31.10;99491.19;6186080;23;20158;-94
2023/03/29 06:25:59;;;;;;;2.97;1.20;;;;;;;12.11;29.89;99501.97;6185720;23;20493;-91
2023/03/29 06:28:25;;;;;;;2.23;1.20;;;;;;;11.75;31.15;99496.00;6187392;23;20167;-89
2023/03/29 06:30:52;;;;;;;2.90;0.97;;;;;;;12.47;30.89;99507.91;6187568;23;20165;-91
2023/03/29 06:33:19;;;;;;;2.80;1.10;;;;;;;12.91;30.48;99495.78;6186165;23;20255;-87
2023/03/29 06:35:46;;;;;;;2.40;1.00;;;;;;;13.05;29.64;99504.66;6186396;23;20159;-88
2023/03/29 06:38:12;;;;;;;1.50;0.93;;;;;;;12.68;28.41;99511.97;6186815;23;20536;-90
2023/03/29 06:40:38;;;;;;;3.17;1.03;;;;;;;12.57;29.38;99506.47;6187477;23;20178;-91
2023/03/29 06:43:04;;;;;;;2.07;0.93;;;;;;;12.42;29.87;99517.78;6187400;23;20607;-91
2023/03/29 06:45:35;;;;;;;3.30;1.13;;;;;;;12.05;29.38;99518.06;6185917;23;20163;-90
2023/03/29 06:48:02;;;;;;;3.60;1.10;;;;;;;11.94;29.84;99531.75;6188004;23;20150;-90
2023/03/29 06:50:28;;;;;;;2.17;1.20;;;;;;;11.76;29.67;99514.31;6185792;23;20151;-89
2023/03/29 06:52:54;;;;;;;3.17;1.80;;;;;;;11.42;30.40;99530.03;6186350;23;20235;-91
2023/03/29 06:55:21;;;;;;;2.97;0.87;;;;;;;11.37;30.84;99535.50;6187345;23;20159;-88
2023/03/29 06:57:46;;;;;;;3.00;0.80;;;;;;;10.95;30.63;99535.00;6186226;23;20493;-92
2023/03/29 07:00:26;;;;;;;3.30;1.60;;;;;;;10.85;30.97;99534.56;6186175;23;20586;-92
2023/03/29 07:02:55;;;;;;;2.50;1.23;;;;;;;11.02;31.21;99539.00;6185447;23;20186;-93
2023/03/29 07:05:26;;;;;;;1.90;0.93;;;;;;;11.22;30.91;99538.03;6186004;23;20262;-92
2023/03/29 07:07:55;;;;;;;1.43;0.90;;;;;;;10.89;31.08;99533.50;6185558;23;20178;-92
2023/03/29 07:10:23;;;;;;;1.50;0.80;;;;;;;10.86;30.81;99543.28;6185699;23;20172;-90
2023/03/29 07:12:50;;;;;;;1.57;0.80;;;;;;;10.86;31.21;99544.13;6186867;23;20146;-90
2023/03/29 07:15:16;;;;;;;1.07;0.77;;;;;;;10.98;31.06;99553.19;6185362;23;20162;-92
2023/03/29 07:17:41;;;;;;;2.40;1.10;;;;;;;10.97;31.24;99554.97;6186587;23;20150;-89
2023/03/29 07:20:12;;;;;;;4.40;2.00;;;;;;;10.51;31.44;99544.06;6187387;23;20209;-90
2023/03/29 07:22:38;;;;;;;1.43;1.03;;;;;;;10.42;32.67;99542.72;6187114;23;20194;-90
2023/03/29 07:25:04;;;;;;;2.07;1.10;;;;;;;10.55;31.50;99543.88;6184705;23;20657;-90
2023/03/29 07:27:30;;;;;;;3.40;1.33;;;;;;;10.47;31.22;99554.69;6185350;23;20517;-90
2023/03/29 07:29:57;;;;;;;2.87;0.90;;;;;;;10.23;31.21;99545.31;6186660;23;20157;-89
2023/03/29 07:32:22;;;;;;;1.43;0.80;;;;;;;10.38;30.96;99542.00;6185073;23;20469;-89
2023/03/29 07:34:48;;;;;;;2.00;1.07;;;;;;;10.39;30.57;99555.97;6185142;23;20154;-90
2023/03/29 07:37:14;;;;;;;1.87;0.80;;;;;;;10.16;29.09;99567.47;6185124;23;20233;-90
2023/03/29 07:39:39;;;;;;;0.73;0.50;;;;;;;9.97;29.53;99558.66;6185545;23;20157;-89
2023/03/29 07:42:05;;;;;;;1.37;0.80;;;;;;;9.89;30.56;99555.53;6186282;23;20178;-89
2023/03/29 07:44:32;;;;;;;1.27;0.73;;;;;;;9.61;30.59;99568.09;6185356;23;20159;-92
2023/03/29 07:46:58;;;;;;;2.60;1.00;;;;;;;9.82;30.86;99572.44;6184751;23;20609;-92
2023/03/29 07:49:24;;;;;;;1.47;0.83;;;;;;;9.90;30.70;99581.63;6185344;23;20178;-91
2023/03/29 07:51:53;;;;;;;1.90;0.90;;;;;;;9.74;30.39;99578.00;6185123;23;20574;-92
2023/03/29 07:54:19;;;;;;;1.57;0.60;;;;;;;9.95;30.98;99584.09;6184807;23;20162;-90
2023/03/29 07:56:46;;;;;;;1.83;0.90;;;;;;;10.46;31.21;99576.56;6185341;23;20545;-92
2023/03/29 07:59:12;;;;;;;2.47;1.23;;;;;;;10.62;30.45;99579.34;6185039;23;20154;-93
2023/03/29 08:01:39;;;;;;;1.60;0.80;;;;;;;10.95;31.11;99571.72;6185008;23;20197;-87
2023/03/29 08:04:05;;;;;;;3.07;1.17;;;;;;;10.62;30.20;99554.91;6185968;23;20147;-89
2023/03/29 08:06:31;;;;;;;2.00;1.00;;;;;;;10.34;30.82;99561.41;6186140;23;20159;-88
2023/03/29 08:08:57;;;;;;;1.27;0.83;;;;;;;10.11;30.34;99569.41;6184849;23;20193;-88
2023/03/29 08:11:23;;;;;;;3.50;1.23;;;;;;;9.49;30.97;99572.06;6186059;23;20143;-90
2023/03/29 08:13:50;;;;;;;1.40;0.60;;;;;;;9.36;29.82;99567.38;6184694;23;20186;-92
2023/03/29 08:16:16;;;;;;;2.63;0.70;;;;;;;9.40;30.21;99563.75;6184587;23;20162;-87
2023/03/29 08:18:41;;;;;;;1.83;0.70;;;;;;;9.34;29.50;99562.22;6186087;23;20158;-89
2023/03/29 08:21:07;;;;;;;0.87;0.60;;;;;;;9.77;29.66;99559.50;6186013;23;20175;-90
2023/03/29 08:23:33;;;;;;;0.90;0.50;;;;;;;9.86;29.83;99558.28;6183986;23;20240;-88
2023/03/29 08:25:58;;;;;;;3.10;0.87;;;;;;;9.80;30.67;99558.56;6186010;23;20150;-89
2023/03/29 08:28:27;;;;;;;1.87;0.70;;;;;;;10.03;29.41;99555.81;6186386;23;20670;-90
2023/03/29 08:30:52;;;;;;;1.30;0.73;;;;;;;9.79;29.48;99552.47;6184385;23;20291;-88
2023/03/29 08:33:18;;;;;;;3.90;1.00;;;;;;;9.92;29.81;99531.84;6186129;23;20571;-85
2023/03/29 08:35:43;;;;;;;2.07;0.60;;;;;;;10.33;28.94;99543.97;6184209;23;20257;-89
2023/03/29 08:38:09;;;;;;;2.30;1.20;;;;;;;10.70;28.57;99544.91;6184537;23;20154;-89
2023/03/29 08:40:36;;;;;;;1.13;0.77;;;;;;;10.76;28.01;99526.28;6184756;23;20486;-91
2023/03/29 08:43:13;;;;;;;1.03;0.70;;;;;;;10.78;28.66;99535.78;6184844;23;20186;-91
2023/03/29 08:45:49;;;;;;;1.17;0.90;;;;;;;10.75;28.63;99530.66;6184440;23;20164;-89
2023/03/29 08:48:52;;;;;;;1.77;0.80;;;;;;;10.46;28.08;99534.63;6185840;23;20134;-91
2023/03/29 08:51:29;;;;;;;1.53;0.63;;;;;;;10.62;28.55;99549.66;6184740;23;20158;-87
2023/03/29 08:54:00;;;;;;;1.77;0.83;;;;;;;10.33;28.35;99538.75;6186062;23;20130;-87
2023/03/29 08:56:29;;;;;;;1.60;0.90;;;;;;;10.32;28.81;99544.91;6185959;23;20579;-90
2023/03/29 08:58:56;;;;;;;1.37;0.87;;;;;;;10.38;28.44;99530.66;6185347;23;20174;-89
2023/03/29 09:01:24;;;;;;;0.90;0.53;;;;;;;10.42;28.58;99533.09;6184273;23;20614;-91
2023/03/29 09:04:02;;;;;;;1.00;0.70;;;;;;;10.62;27.59;99528.69;6185706;23;20165;-90
2023/03/29 09:06:28;;;;;;;3.77;1.00;;;;;;;10.47;28.77;99533.72;6184142;23;20567;-89
2023/03/29 09:08:53;;;;;;;3.10;0.97;;;;;;;9.93;28.64;99538.78;6186016;23;20151;-90
2023/03/29 09:11:39;;;;;;;4.60;0.80;;;;;;;10.36;29.14;99530.75;6184253;23;20177;-92
2023/03/29 09:14:42;;;;;;;1.90;0.93;;;;;;;11.05;28.96;99529.22;6182810;23;20162;-92
2023/03/29 09:17:41;;;;;;;3.63;1.40;;;;;;;11.43;29.15;99519.47;6184281;23;20138;-91
2023/03/29 09:20:39;;;;;;;4.57;2.13;;;;;;;11.22;29.71;99540.66;6182798;23;20227;-91
2023/03/29 09:23:33;;;;;;;2.70;1.00;;;;;;;11.20;28.26;99539.88;6185355;23;20176;-91
2023/03/29 09:26:04;;;;;;;1.50;0.60;;;;;;;11.41;26.98;99544.09;6184461;23;20140;-90
2023/03/29 09:28:49;;;;;;;1.63;0.77;;;;;;;11.21;26.63;99531.09;6185613;23;20147;-89
2023/03/29 09:31:21;;;;;;;1.27;0.57;;;;;;;11.21;26.34;99525.84;6185386;23;20135;-91
2023/03/29 09:34:27;;;;;;;2.17;0.70;;;;;;;11.38;27.88;99529.34;6184559;23;20130;-89
2023/03/29 09:36:58;;;;;;;1.50;0.70;;;;;;;11.51;27.90;99505.94;6112480;23;20231;-91
2023/03/29 09:39:27;;;;;;;3.13;0.67;;;;;;;11.64;28.28;99533.28;6185190;23;20166;-89
2023/03/29 09:42:04;;;;;;;1.67;0.70;;;;;;;11.68;27.73;99530.47;6183490;23;20587;-90
2023/03/29 09:44:40;;;;;;;2.67;1.27;;;;;;;11.61;26.71;99539.53;6183955;23;20262;-89
2023/03/29 09:47:26;;;;;;;1.73;0.77;;;;;;;11.70;28.66;99528.63;6185981;23;20144;-91
2023/03/29 09:50:01;;;;;;;2.20;0.70;;;;;;;11.79;26.29;99511.56;6184702;23;20635;-90
2023/03/29 09:52:28;;;;;;;0.57;0.50;;;;;;;11.94;26.87;99505.50;6183657;23;20153;-89
2023/03/29 09:54:54;;;;;;;0.70;0.50;;;;;;;11.68;27.65;99519.09;6185663;23;20148;-89
2023/03/29 09:57:31;;;;;;;1.70;1.07;;;;;;;11.82;26.93;99523.66;6184209;23;20157;-92
2023/03/29 10:00:09;;;;;;;0.90;0.60;;;;;;;12.09;26.03;99506.44;6184490;23;20227;-89
2023/03/29 10:02:40;;;;;;;2.47;0.60;;;;;;;12.21;25.67;99500.56;6180392;23;20192;-93
2023/03/29 10:09:18;;;;;;;1.03;0.47;;;;;;;11.87;27.78;99490.97;6184610;23;20261;-89
2023/03/29 10:12:11;;;;;;;2.43;0.90;;;;;;;11.57;26.49;99498.63;6185434;23;20148;-90
2023/03/29 10:14:45;;;;;;;1.23;0.60;;;;;;;11.55;27.78;99486.50;6159032;23;20164;-92
2023/03/29 10:17:22;;;;;;;1.17;0.50;;;;;;;11.83;27.48;99486.81;6158289;23;20157;-90
2023/03/29 10:20:00;;;;;;;2.03;0.73;;;;;;;11.62;26.67;99495.75;6187753;23;20149;-93
2023/03/29 10:22:32;;;;;;;2.37;0.60;;;;;;;12.07;26.49;99503.06;6161378;23;20176;-91
2023/03/29 10:24:57;;;;;;;1.53;0.67;;;;;;;12.01;27.07;99483.22;6185779;23;20179;-89
2023/03/29 10:27:26;;;;;;;2.10;0.70;;;;;;;12.25;27.09;99497.69;6186103;23;20189;-89
2023/03/29 10:29:53;;;;;;;3.10;1.10;;;;;;;11.99;25.44;99505.25;6161393;23;20214;-88
2023/03/29 10:32:21;;;;;;;2.60;0.90;;;;;;;11.93;26.46;99516.06;6160929;23;20168;-87
2023/03/29 10:34:48;;;;;;;1.33;0.53;;;;;;;12.28;27.05;99504.56;6187681;23;20208;-88
2023/03/29 10:37:18;;;;;;;0.87;0.43;;;;;;;12.38;27.08;99497.00;6161004;23;20158;-90
2023/03/29 10:39:48;;;;;;;1.90;0.67;;;;;;;11.85;25.06;99505.97;6160940;23;20165;-93
2023/03/29 10:42:17;;;;;;;4.87;1.10;;;;;;;11.28;26.34;99519.38;6186966;23;20169;-89
2023/03/29 10:44:58;;;;;;;2.50;1.07;;;;;;;11.50;26.48;99499.84;6187498;23;20148;-89
2023/03/29 10:47:24;;;;;;;2.07;0.90;;;;;;;11.77;26.76;99507.28;6161026;23;20157;-90
2023/03/29 10:49:53;;;;;;;3.33;0.57;;;;;;;11.36;25.55;99517.22;6160255;23;20259;-89
2023/03/29 10:52:20;;;;;;;3.10;0.80;;;;;;;11.58;25.07;99497.69;6160668;23;20697;-93
2023/03/29 10:54:48;;;;;;;2.77;0.60;;;;;;;11.93;25.52;99503.78;6161139;23;20584;-91
2023/03/29 10:57:48;;;;;;;1.57;0.50;;;;;;;11.76;25.94;99513.47;6161002;23;20159;-90
2023/03/29 11:00:17;;;;;;;1.53;0.70;;;;;;;11.79;24.18;99501.03;6153759;23;20157;-92
2023/03/29 11:03:37;;;;;;;1.93;0.77;;;;;;;11.63;24.15;99479.91;6160935;23;20192;-92
2023/03/29 11:06:25;;;;;;;2.07;0.57;;;;;;;11.87;26.34;99479.63;6015627;23;20150;-91
2023/03/29 11:09:13;;;;;;;2.53;0.63;;;;;;;12.31;26.29;99472.84;6004565;23;20155;-91
2023/03/29 11:11:57;;;;;;;1.43;0.40;;;;;;;12.27;24.47;99471.31;6145299;23;20172;-92
2023/03/29 11:14:28;;;;;;;0.83;0.50;;;;;;;12.15;24.17;99471.97;6157923;23;20149;-91
2023/03/29 11:17:03;;;;;;;0.97;0.50;;;;;;;12.08;24.69;99466.19;6157428;23;20148;-91
2023/03/29 11:19:49;;;;;;;2.23;0.97;;;;;;;11.97;25.00;99468.56;6157375;23;20164;-89
2023/03/29 11:22:46;;;;;;;1.73;0.60;;;;;;;12.48;24.62;99464.88;6131270;23;20182;-93
2023/03/29 11:25:12;;;;;;;1.80;0.87;;;;;;;12.50;24.17;99452.50;6131893;23;20224;-90
2023/03/29 11:28:00;;;;;;;1.00;0.70;;;;;;;12.49;23.90;99449.97;6131780;23;20158;-90
2023/03/29 11:30:39;;;;;;;6.37;1.10;;;;;;;12.38;23.93;99440.03;6156824;23;20162;-91
2023/03/29 11:33:23;;;;;;;1.17;0.50;;;;;;;12.45;24.51;99446.63;6157584;23;20134;-88
2023/03/29 11:36:21;;;;;;;0.87;0.30;;;;;;;12.40;25.32;99456.56;6156530;23;20151;-88
2023/03/29 11:38:46;;;;;;;2.07;0.70;;;;;;;12.38;23.87;99447.06;6125521;23;20537;-92
2023/03/29 11:41:25;;;;;;;1.57;0.50;;;;;;;12.74;24.20;99447.66;6130827;23;20190;-92
2023/03/29 11:43:58;;;;;;;1.27;0.60;;;;;;;12.79;23.91;99449.09;6130847;23;20236;-91
2023/03/29 11:46:36;;;;;;;1.00;0.60;;;;;;;12.99;24.14;99440.06;6157336;23;20135;-92
2023/03/29 11:49:56;;;;;;;1.77;0.73;;;;;;;13.42;24.32;99439.28;6132142;23;20170;-92
2023/03/29 11:52:36;;;;;;;1.87;0.70;;;;;;;12.81;23.86;99434.06;6096359;23;20252;-92
2023/03/29 11:55:21;;;;;;;1.80;0.60;;;;;;;12.74;25.12;99445.88;6130920;23;20297;-92
2023/03/29 11:58:03;;;;;;;2.30;0.90;;;;;;;12.67;24.51;99441.03;6131168;23;20146;-92
2023/03/29 12:00:41;;;;;;;2.37;0.70;;;;;;;12.61;23.94;99434.34;6130747;23;20153;-92